createdAt,value
2023-02-18T00:01:41.623Z,18.13
2023-02-18T00:04:11.477Z,23.03
2023-02-18T00:06:39.810Z,18.13
2023-02-18T00:09:09.291Z,19.40
2023-02-18T00:11:39.245Z,16.97
2023-02-18T00:14:12.048Z,17.10
2023-02-18T00:16:40.382Z,18.27
2023-02-18T00:19:12.798Z,17.23
2023-02-18T00:21:41.163Z,18.03
2023-02-18T00:24:10.429Z,18.17
2023-02-18T00:26:38.773Z,17.27
2023-02-18T00:29:07.072Z,17.23
2023-02-18T00:31:37.355Z,18.03
2023-02-18T00:34:06.849Z,16.87
2023-02-18T00:36:37.124Z,22.00
2023-02-18T00:39:08.023Z,19.87
2023-02-18T00:41:37.372Z,18.93
2023-02-18T00:44:06.409Z,21.87
2023-02-18T00:46:34.860Z,17.93
2023-02-18T00:49:03.525Z,24.93
2023-02-18T00:51:32.187Z,19.87
2023-02-18T00:54:01.885Z,22.73
2023-02-18T00:56:30.227Z,22.20
2023-02-18T00:58:58.603Z,23.27
2023-02-18T01:01:27.980Z,22.03
2023-02-18T01:03:56.384Z,23.53
2023-02-18T01:06:24.712Z,20.20
2023-02-18T01:08:53.006Z,20.23
2023-02-18T01:11:22.774Z,22.10
2023-02-18T01:13:51.079Z,25.80
2023-02-18T01:16:19.448Z,16.23
2023-02-18T01:18:47.911Z,17.83
2023-02-18T01:21:16.979Z,20.17
2023-02-18T01:23:45.327Z,24.27
2023-02-18T01:26:13.941Z,19.57
2023-02-18T01:28:43.741Z,20.03
2023-02-18T01:31:17.082Z,19.97
2023-02-18T01:33:45.616Z,18.70
2023-02-18T01:36:14.435Z,24.30
2023-02-18T01:38:42.822Z,20.47
2023-02-18T01:41:11.738Z,21.00
2023-02-18T01:43:40.382Z,19.03
2023-02-18T01:46:18.624Z,19.33
2023-02-18T01:48:51.546Z,20.87
2023-02-18T01:51:23.435Z,19.97
2023-02-18T01:53:57.019Z,18.40
2023-02-18T01:56:30.692Z,20.90
2023-02-18T01:59:02.348Z,22.47
2023-02-18T02:01:33.616Z,22.13
2023-02-18T02:04:02.028Z,20.97
2023-02-18T02:06:30.596Z,26.87
2023-02-18T02:09:02.270Z,20.17
2023-02-18T02:12:02.869Z,23.87
2023-02-18T02:14:52.079Z,24.37
2023-02-18T02:17:31.817Z,21.30
2023-02-18T02:20:38.605Z,21.87
2023-02-18T02:23:40.863Z,20.67
2023-02-18T02:26:49.972Z,20.03
2023-02-18T02:29:54.864Z,21.53
2023-02-18T02:32:56.459Z,19.30
2023-02-18T02:35:27.749Z,21.77
2023-02-18T02:38:03.404Z,24.03
2023-02-18T02:40:38.300Z,22.50
2023-02-18T02:43:14.816Z,24.27
2023-02-18T02:45:54.093Z,23.70
2023-02-18T02:48:37.032Z,23.07
2023-02-18T02:51:12.021Z,22.37
2023-02-18T02:53:43.400Z,27.27
2023-02-18T02:56:15.918Z,23.50
2023-02-18T02:58:45.598Z,23.93
2023-02-18T03:01:30.670Z,28.97
2023-02-18T03:04:24.194Z,27.63
2023-02-18T03:07:11.452Z,29.20
2023-02-18T03:09:54.503Z,30.47
2023-02-18T03:12:31.140Z,34.23
2023-02-18T03:15:06.286Z,30.57
2023-02-18T03:17:39.380Z,28.23
2023-02-18T03:20:11.801Z,30.77
2023-02-18T03:22:46.150Z,32.47
2023-02-18T03:25:15.827Z,34.07
2023-02-18T03:27:48.475Z,33.57
2023-02-18T03:30:22.616Z,32.30
2023-02-18T03:32:56.438Z,33.83
2023-02-18T03:35:26.245Z,32.10
2023-02-18T03:38:01.129Z,32.10
2023-02-18T03:40:30.055Z,33.23
2023-02-18T03:42:58.901Z,34.13
2023-02-18T03:45:27.490Z,32.37
2023-02-18T03:47:55.926Z,33.63
2023-02-18T03:50:24.239Z,28.97
2023-02-18T03:52:52.605Z,32.60
2023-02-18T03:55:22.427Z,29.67
2023-02-18T03:57:50.739Z,31.10
2023-02-18T04:00:20.347Z,29.53
2023-02-18T04:02:48.771Z,30.57
2023-02-18T04:05:17.361Z,28.07
2023-02-18T04:07:45.640Z,33.70
2023-02-18T04:10:14.225Z,28.33
2023-02-18T04:12:43.915Z,28.90
2023-02-18T04:15:13.850Z,28.20
2023-02-18T04:17:42.249Z,26.87
2023-02-18T04:20:11.404Z,25.70
2023-02-18T04:22:39.797Z,29.17
2023-02-18T04:25:09.007Z,26.33
2023-02-18T04:27:37.292Z,27.90
2023-02-18T04:30:09.099Z,25.87
2023-02-18T04:32:37.522Z,30.87
2023-02-18T04:35:06.600Z,24.97
2023-02-18T04:37:35.044Z,26.60
2023-02-18T04:40:03.385Z,26.47
2023-02-18T04:42:31.945Z,29.07
2023-02-18T04:45:00.289Z,25.77
2023-02-18T04:47:30.064Z,30.17
2023-02-18T04:49:58.408Z,25.27
2023-02-18T04:52:26.755Z,26.17
2023-02-18T04:54:55.106Z,25.30
2023-02-18T04:57:23.427Z,28.93
2023-02-18T04:59:52.019Z,25.83
2023-02-18T05:02:20.360Z,23.97
2023-02-18T05:04:50.097Z,23.07
2023-02-18T05:07:18.630Z,25.03
2023-02-18T05:09:47.114Z,23.30
2023-02-18T05:12:15.442Z,21.83
2023-02-18T05:14:43.727Z,21.63
2023-02-18T05:17:12.029Z,24.77
2023-02-18T05:19:40.355Z,23.57
2023-02-18T05:22:10.211Z,24.17
2023-02-18T05:24:38.494Z,26.17
2023-02-18T05:27:06.841Z,24.20
2023-02-18T05:29:35.114Z,22.17
2023-02-18T05:32:03.435Z,25.93
2023-02-18T05:34:31.786Z,27.47
2023-02-18T05:37:00.049Z,22.27
2023-02-18T05:39:29.844Z,23.17
2023-02-18T05:41:58.209Z,25.60
2023-02-18T05:44:32.642Z,19.63
2023-02-18T05:47:03.178Z,24.40
2023-02-18T05:49:32.769Z,19.40
2023-02-18T05:52:01.200Z,21.73
2023-02-18T05:54:30.950Z,24.80
2023-02-18T05:56:59.366Z,22.17
2023-02-18T05:59:27.826Z,21.53
2023-02-18T06:01:56.509Z,19.00
2023-02-18T06:04:25.580Z,19.40
2023-02-18T06:06:54.778Z,22.87
2023-02-18T06:09:23.564Z,28.77
2023-02-18T06:11:53.506Z,50.13
2023-02-18T06:14:21.851Z,20.73
2023-02-18T06:16:50.186Z,22.40
2023-02-18T06:19:18.582Z,21.47
2023-02-18T06:21:47.010Z,19.53
2023-02-18T06:24:15.347Z,21.30
2023-02-18T06:26:43.693Z,19.13
2023-02-18T06:29:13.471Z,18.73
2023-02-18T06:31:41.878Z,23.30
2023-02-18T06:34:10.276Z,19.83
2023-02-18T06:36:38.598Z,20.87
2023-02-18T06:39:07.635Z,21.07
2023-02-18T06:41:36.159Z,19.57
2023-02-18T06:44:04.666Z,17.83
2023-02-18T06:46:34.710Z,17.93
2023-02-18T06:49:03.084Z,19.53
2023-02-18T06:51:31.658Z,16.70
2023-02-18T06:53:59.982Z,20.87
2023-02-18T06:56:30.100Z,20.33
2023-02-18T06:58:59.289Z,17.43
2023-02-18T07:01:27.602Z,20.33
2023-02-18T07:03:57.537Z,21.00
2023-02-18T07:06:26.226Z,20.57
2023-02-18T07:08:54.617Z,15.90
2023-02-18T07:11:23.023Z,19.47
2023-02-18T07:13:51.410Z,18.90
2023-02-18T07:16:19.754Z,16.90
2023-02-18T07:18:48.285Z,18.80
2023-02-18T07:21:17.971Z,19.70
2023-02-18T07:23:46.330Z,20.00
2023-02-18T07:26:15.952Z,20.93
2023-02-18T07:28:44.415Z,17.07
2023-02-18T07:31:12.886Z,19.77
2023-02-18T07:33:41.285Z,20.20
2023-02-18T07:36:10.749Z,19.87
2023-02-18T07:38:42.053Z,19.70
2023-02-18T07:41:18.479Z,17.47
2023-02-18T07:43:46.935Z,17.50
2023-02-18T07:46:15.593Z,21.23
2023-02-18T07:48:44.179Z,20.17
2023-02-18T07:51:13.665Z,22.60
2023-02-18T07:53:46.090Z,20.57
2023-02-18T07:56:14.656Z,18.73
2023-02-18T07:58:43.045Z,20.63
2023-02-18T08:01:15.512Z,23.57
2023-02-18T08:03:44.279Z,17.70
2023-02-18T08:06:21.792Z,20.35
2023-02-18T08:08:51.544Z,18.27
2023-02-18T08:11:19.973Z,26.90
2023-02-18T08:13:48.675Z,21.70
2023-02-18T08:16:18.084Z,22.23
2023-02-18T08:18:47.971Z,26.20
2023-02-18T08:21:16.627Z,15.70
2023-02-18T08:23:45.410Z,16.13
2023-02-18T08:26:15.204Z,17.13
2023-02-18T08:28:43.678Z,17.37
2023-02-18T08:31:18.943Z,16.87
2023-02-18T08:33:47.453Z,25.10
2023-02-18T08:36:16.077Z,14.93
2023-02-18T08:38:44.579Z,18.87
2023-02-18T08:41:15.048Z,19.37
2023-02-18T08:43:44.130Z,17.63
2023-02-18T08:46:16.181Z,16.37
2023-02-18T08:48:47.763Z,13.23
2023-02-18T08:51:19.269Z,14.23
2023-02-18T08:53:47.609Z,15.47
2023-02-18T08:56:17.946Z,23.10
2023-02-18T08:58:46.573Z,18.70
2023-02-18T09:01:15.448Z,15.27
2023-02-18T09:03:47.084Z,17.90
2023-02-18T09:06:15.363Z,18.40
2023-02-18T09:08:43.849Z,15.27
2023-02-18T09:11:12.782Z,18.30
2023-02-18T09:13:42.524Z,13.03
2023-02-18T09:16:13.885Z,13.83
2023-02-18T09:18:42.936Z,18.40
2023-02-18T09:21:34.711Z,20.07
2023-02-18T09:24:03.258Z,21.70
2023-02-18T09:26:31.614Z,21.57
2023-02-18T09:29:01.327Z,16.43
2023-02-18T09:31:30.795Z,13.93
2023-02-18T09:34:01.465Z,20.47
2023-02-18T09:36:30.388Z,17.93
2023-02-18T09:38:58.813Z,20.07
2023-02-18T09:41:38.192Z,18.13
2023-02-18T09:44:14.419Z,17.07
2023-02-18T09:46:48.225Z,13.40
2023-02-18T09:49:20.194Z,15.37
2023-02-18T09:51:48.822Z,23.77
2023-02-18T09:54:20.354Z,18.83
2023-02-18T09:56:49.683Z,19.20
2023-02-18T09:59:22.574Z,17.90
2023-02-18T10:01:57.168Z,18.73
2023-02-18T10:04:30.440Z,20.03
2023-02-18T10:07:00.329Z,18.53
2023-02-18T10:09:33.333Z,18.27
2023-02-18T10:12:11.988Z,17.77
2023-02-18T10:14:42.189Z,17.17
2023-02-18T10:17:15.199Z,13.13
2023-02-18T10:19:45.432Z,16.60
2023-02-18T10:22:15.717Z,16.33
2023-02-18T10:24:47.809Z,13.17
2023-02-18T10:27:22.368Z,13.90
2023-02-18T10:29:52.387Z,14.00
2023-02-18T10:32:24.684Z,15.67
2023-02-18T10:35:00.281Z,13.47
2023-02-18T10:37:55.893Z,14.50
2023-02-18T10:40:32.528Z,15.50
2023-02-18T10:43:11.182Z,13.67
2023-02-18T10:45:48.705Z,17.15
2023-02-18T10:48:54.706Z,15.83
2023-02-18T10:51:25.439Z,15.23
2023-02-18T10:53:55.268Z,15.30
2023-02-18T10:56:44.115Z,35.37
2023-02-18T10:59:15.038Z,17.60
2023-02-18T11:01:45.556Z,17.17
2023-02-18T11:04:18.215Z,15.70
2023-02-18T11:06:48.715Z,26.33
2023-02-18T11:09:39.929Z,33.23
2023-02-18T11:12:16.593Z,26.37
2023-02-18T11:14:46.836Z,15.80
2023-02-18T11:17:21.956Z,18.73
2023-02-18T11:19:59.439Z,13.20
2023-02-18T11:22:31.776Z,16.70
2023-02-18T11:25:21.346Z,14.67
2023-02-18T11:27:53.279Z,17.37
2023-02-18T11:30:24.744Z,23.57
2023-02-18T11:32:59.576Z,20.83
2023-02-18T11:35:31.238Z,17.83
2023-02-18T11:38:00.948Z,13.97
2023-02-18T11:40:32.399Z,16.23
2023-02-18T11:43:11.424Z,13.67
2023-02-18T11:45:40.375Z,16.80
2023-02-18T11:48:17.858Z,14.00
2023-02-18T11:50:46.772Z,15.27
2023-02-18T11:53:31.957Z,15.63
2023-02-18T11:56:02.538Z,12.13
2023-02-18T11:58:39.176Z,13.20
2023-02-18T12:01:14.370Z,15.43
2023-02-18T12:03:49.959Z,12.97
2023-02-18T12:06:22.075Z,15.83
2023-02-18T12:08:54.859Z,14.07
2023-02-18T12:11:30.432Z,14.07
2023-02-18T12:13:59.996Z,14.20
2023-02-18T12:16:38.114Z,14.77
2023-02-18T12:19:28.795Z,15.37
2023-02-18T12:22:03.973Z,16.27
2023-02-18T12:24:43.714Z,14.67
2023-02-18T12:27:19.186Z,19.10
2023-02-18T12:33:21.042Z,17.50
2023-02-18T12:36:00.237Z,12.13
2023-02-18T12:39:29.419Z,12.87
2023-02-18T12:42:12.214Z,9.40
2023-02-18T12:44:45.853Z,13.77
2023-02-18T12:47:45.326Z,13.20
2023-02-18T12:50:46.782Z,12.40
2023-02-18T12:53:32.057Z,16.40
2023-02-18T12:56:21.177Z,17.97
2023-02-18T12:58:57.489Z,10.77
2023-02-18T13:01:36.430Z,14.77
2023-02-18T13:04:22.574Z,13.33
2023-02-18T13:07:48.407Z,12.60
2023-02-18T13:10:48.562Z,14.73
2023-02-18T13:13:20.816Z,13.80
2023-02-18T13:15:55.258Z,14.67
2023-02-18T13:18:29.400Z,12.00
2023-02-18T13:21:03.433Z,12.40
2023-02-18T13:23:36.458Z,10.90
2023-02-18T13:26:11.050Z,15.83
2023-02-18T13:28:45.220Z,15.00
2023-02-18T13:31:29.225Z,15.50
2023-02-18T13:34:05.493Z,8.68
2023-02-18T13:36:46.086Z,12.15
2023-02-18T13:39:20.140Z,11.13
2023-02-18T13:41:51.627Z,15.45
2023-02-18T13:44:42.474Z,11.68
2023-02-18T13:47:11.653Z,8.98
2023-02-18T13:49:42.847Z,13.20
2023-02-18T13:52:21.538Z,9.27
2023-02-18T13:54:51.990Z,10.35
2023-02-18T13:57:26.801Z,13.32
2023-02-18T14:00:00.129Z,9.13
2023-02-18T14:02:35.112Z,8.00
2023-02-18T14:05:25.107Z,8.53
2023-02-18T14:07:59.940Z,9.25
2023-02-18T14:10:33.574Z,9.38
2023-02-18T14:13:40.079Z,7.38
2023-02-18T14:16:09.781Z,8.93
2023-02-18T14:19:00.162Z,7.68
2023-02-18T14:21:41.057Z,7.20
2023-02-18T14:24:12.871Z,6.90
2023-02-18T14:26:47.045Z,7.22
2023-02-18T14:29:28.414Z,6.40
2023-02-18T14:32:01.739Z,12.82
2023-02-18T14:35:04.606Z,7.72
2023-02-18T14:38:06.211Z,6.88
2023-02-18T14:41:10.095Z,7.43
2023-02-18T14:44:05.606Z,8.45
2023-02-18T14:46:47.801Z,8.90
2023-02-18T14:49:32.820Z,8.48
2023-02-18T14:52:01.915Z,9.00
2023-02-18T14:54:32.320Z,8.15
2023-02-18T14:57:05.174Z,9.27
2023-02-18T14:59:39.341Z,10.38
2023-02-18T15:02:21.341Z,7.10
2023-02-18T15:04:50.770Z,13.80
2023-02-18T15:07:21.820Z,12.07
2023-02-18T15:09:53.999Z,11.48
2023-02-18T15:12:25.875Z,12.20
2023-02-18T15:14:55.856Z,8.85
2023-02-18T15:17:28.238Z,11.25
2023-02-18T15:19:59.739Z,10.27
2023-02-18T15:22:32.386Z,8.20
2023-02-18T15:25:00.948Z,9.73
2023-02-18T15:27:32.030Z,11.27
2023-02-18T15:30:11.612Z,12.10
2023-02-18T15:32:41.288Z,12.50
2023-02-18T15:35:18.006Z,11.70
2023-02-18T15:37:47.307Z,11.27
2023-02-18T15:40:16.432Z,11.27
2023-02-18T15:42:47.555Z,12.43
2023-02-18T15:45:20.361Z,14.23
2023-02-18T15:47:52.776Z,9.70
2023-02-18T15:50:24.301Z,11.50
2023-02-18T15:52:54.710Z,16.73
2023-02-18T15:55:31.456Z,15.47
2023-02-18T15:58:03.703Z,12.48
2023-02-18T16:00:36.318Z,14.40
2023-02-18T16:03:14.200Z,12.13
2023-02-18T16:05:43.303Z,10.30
2023-02-18T16:08:17.182Z,13.40
2023-02-18T16:10:50.045Z,12.83
2023-02-18T16:13:19.527Z,12.83
2023-02-18T16:15:50.483Z,12.00
2023-02-18T16:18:38.453Z,17.40
2023-02-18T16:21:23.521Z,19.30
2023-02-18T16:23:58.049Z,12.30
2023-02-18T16:26:30.938Z,20.10
2023-02-18T16:29:08.781Z,11.93
2023-02-18T16:31:37.183Z,12.23
2023-02-18T16:34:06.949Z,12.80
2023-02-18T16:36:35.527Z,18.33
2023-02-18T16:39:04.237Z,9.90
2023-02-18T16:41:32.548Z,12.93
2023-02-18T16:44:00.857Z,11.30
2023-02-18T16:46:31.455Z,13.27
2023-02-18T16:49:00.625Z,11.07
2023-02-18T16:51:36.013Z,13.30
2023-02-18T16:54:04.382Z,12.83
2023-02-18T16:56:35.483Z,13.50
2023-02-18T16:59:03.850Z,8.90
2023-02-18T17:01:34.801Z,11.73
2023-02-18T17:04:03.887Z,10.43
2023-02-18T17:06:38.142Z,10.40
2023-02-18T17:09:15.099Z,10.50
2023-02-18T17:11:44.512Z,10.37
2023-02-18T17:14:17.968Z,10.97
2023-02-18T17:16:46.528Z,10.30
2023-02-18T17:19:15.100Z,13.90
2023-02-18T17:21:48.595Z,16.53
2023-02-18T17:24:19.523Z,11.73
2023-02-18T17:26:47.824Z,12.57
2023-02-18T17:29:16.187Z,12.63
2023-02-18T17:31:47.542Z,13.83
2023-02-18T17:34:26.458Z,14.30
2023-02-18T17:36:56.174Z,14.83
2023-02-18T17:39:24.759Z,11.93
2023-02-18T17:41:53.357Z,11.77
2023-02-18T17:44:23.681Z,9.37
2023-02-18T17:46:52.527Z,14.17
2023-02-18T17:49:21.113Z,11.83
2023-02-18T17:51:49.949Z,10.33
2023-02-18T17:54:22.722Z,12.37
2023-02-18T17:56:51.310Z,14.53
2023-02-18T17:59:19.601Z,11.33
2023-02-18T18:01:47.904Z,12.87
2023-02-18T18:04:18.671Z,9.97
2023-02-18T18:06:47.526Z,13.53
2023-02-18T18:09:15.839Z,9.43
2023-02-18T18:11:45.721Z,17.40
2023-02-18T18:14:15.093Z,11.57
2023-02-18T18:16:43.458Z,11.33
2023-02-18T18:19:11.797Z,11.13
2023-02-18T18:21:40.307Z,10.47
2023-02-18T18:24:12.789Z,12.67
2023-02-18T18:26:41.114Z,12.63
2023-02-18T18:29:10.814Z,12.37
2023-02-18T18:31:39.449Z,13.73
2023-02-18T18:34:07.961Z,17.00
2023-02-18T18:36:36.264Z,13.93
2023-02-18T18:39:04.686Z,12.37
2023-02-18T18:41:34.907Z,11.30
2023-02-18T18:44:05.504Z,12.27
2023-02-18T18:46:35.533Z,11.83
2023-02-18T18:49:04.178Z,11.43
2023-02-18T18:51:34.101Z,9.60
2023-02-18T18:54:03.421Z,11.80
2023-02-18T18:56:31.747Z,8.67
2023-02-18T18:59:00.257Z,12.20
2023-02-18T19:01:29.291Z,9.83
2023-02-18T19:03:59.385Z,8.67
2023-02-18T19:06:27.817Z,8.63
2023-02-18T19:08:56.118Z,11.23
2023-02-18T19:11:24.411Z,7.80
2023-02-18T19:13:52.918Z,6.83
2023-02-18T19:16:23.796Z,9.80
2023-02-18T19:18:53.025Z,8.83
2023-02-18T19:21:22.690Z,9.20
2023-02-18T19:23:51.033Z,7.23
2023-02-18T19:26:19.321Z,7.57
2023-02-18T19:28:47.750Z,6.63
2023-02-18T19:31:16.533Z,6.87
2023-02-18T19:33:47.027Z,7.27
2023-02-18T19:36:16.832Z,8.43
2023-02-18T19:38:46.972Z,7.40
2023-02-18T19:41:17.874Z,7.83
2023-02-18T19:43:47.176Z,8.50
2023-02-18T19:46:18.401Z,8.10
2023-02-18T19:48:50.681Z,7.80
2023-02-18T19:51:19.056Z,7.47
2023-02-18T19:53:51.590Z,7.83
2023-02-18T19:56:20.233Z,6.10
2023-02-18T19:58:48.540Z,9.30
2023-02-18T20:01:18.348Z,9.73
2023-02-18T20:03:48.980Z,7.77
2023-02-18T20:06:18.933Z,10.27
2023-02-18T20:08:49.158Z,7.27
2023-02-18T20:11:17.952Z,7.40
2023-02-18T20:13:48.698Z,8.80
2023-02-18T20:16:17.103Z,7.40
2023-02-18T20:18:45.437Z,5.63
2023-02-18T20:21:14.310Z,7.40
2023-02-18T20:23:43.115Z,9.83
2023-02-18T20:26:14.966Z,6.80
2023-02-18T20:28:44.475Z,7.37
2023-02-18T20:31:14.561Z,7.37
2023-02-18T20:33:43.587Z,6.50
2023-02-18T20:36:14.398Z,8.02
2023-02-18T20:38:43.215Z,8.00
2023-02-18T20:41:17.625Z,7.60
2023-02-18T20:43:46.713Z,6.27
2023-02-18T20:46:16.856Z,8.53
2023-02-18T20:48:54.489Z,7.83
2023-02-18T20:51:24.262Z,8.67
2023-02-18T20:53:53.002Z,8.00
2023-02-18T20:56:23.052Z,11.37
2023-02-18T20:58:51.980Z,6.75
2023-02-18T21:01:20.761Z,8.20
2023-02-18T21:03:49.980Z,8.30
2023-02-18T21:06:20.636Z,13.43
2023-02-18T21:08:50.496Z,9.10
2023-02-18T21:11:20.915Z,9.10
2023-02-18T21:13:52.077Z,8.87
2023-02-18T21:16:22.004Z,9.07
2023-02-18T21:18:50.914Z,9.30
2023-02-18T21:21:20.801Z,10.20
2023-02-18T21:23:49.257Z,7.80
2023-02-18T21:26:19.940Z,9.83
2023-02-18T21:28:50.584Z,8.83
2023-02-18T21:31:20.899Z,11.77
2023-02-18T21:33:49.615Z,10.17
2023-02-18T21:36:18.488Z,12.30
2023-02-18T21:38:52.038Z,9.00
2023-02-18T21:41:20.709Z,10.00
2023-02-18T21:43:51.122Z,9.33
2023-02-18T21:46:21.821Z,9.70
2023-02-18T21:49:09.829Z,8.80
2023-02-18T21:52:00.377Z,10.97
2023-02-18T21:54:31.195Z,10.70
2023-02-18T21:57:00.996Z,11.57
2023-02-18T21:59:31.457Z,11.10
2023-02-18T22:02:01.019Z,10.60
2023-02-18T22:04:30.757Z,10.73
2023-02-18T22:06:59.143Z,11.50
2023-02-18T22:09:27.897Z,12.27
2023-02-18T22:11:56.290Z,11.13
2023-02-18T22:14:24.886Z,10.63
2023-02-18T22:16:54.664Z,8.50
2023-02-18T22:19:22.926Z,14.23
2023-02-18T22:21:51.332Z,10.67
2023-02-18T22:24:20.621Z,9.67
2023-02-18T22:26:50.417Z,10.07
2023-02-18T22:29:20.594Z,12.47
2023-02-18T22:31:49.624Z,11.40
2023-02-18T22:34:19.475Z,11.27
2023-02-18T22:36:48.122Z,10.93
2023-02-18T22:39:17.087Z,10.43
2023-02-18T22:41:45.583Z,12.17
2023-02-18T22:44:16.199Z,10.93
2023-02-18T22:46:44.678Z,9.77
2023-02-18T22:49:13.138Z,10.90
2023-02-18T22:51:44.506Z,9.03
2023-02-18T22:54:14.702Z,10.83
2023-02-18T22:56:44.054Z,10.50
2023-02-18T22:59:13.928Z,12.20
2023-02-18T23:01:44.635Z,11.80
2023-02-18T23:04:15.281Z,12.57
2023-02-18T23:06:46.872Z,11.43
2023-02-18T23:09:17.084Z,12.67
2023-02-18T23:11:46.213Z,11.23
2023-02-18T23:14:21.510Z,11.33
2023-02-18T23:17:08.973Z,14.40
2023-02-18T23:19:38.717Z,12.20
2023-02-18T23:22:09.056Z,10.50
2023-02-18T23:24:38.876Z,9.83
2023-02-18T23:27:09.491Z,14.10
2023-02-18T23:29:38.454Z,13.97
2023-02-18T23:32:07.712Z,12.20
2023-02-18T23:34:36.327Z,14.30
2023-02-18T23:37:04.696Z,11.97
2023-02-18T23:39:35.060Z,12.47
2023-02-18T23:42:03.444Z,11.13
2023-02-18T23:44:31.940Z,13.50
2023-02-18T23:47:00.312Z,11.37
2023-02-18T23:49:29.148Z,14.63
2023-02-18T23:51:58.490Z,13.33
2023-02-18T23:54:27.093Z,10.23
2023-02-18T23:56:56.808Z,13.13
2023-02-18T23:59:25.088Z,11.10
